Latest Weather Observations for Terrey Hills

IDN60901

Issued at 8:16 pm EDT Wednesday 28 January 2015 (issued every 10 minutes, with the page automatically refreshed every 10 minutes)

About weather observations | Map of Sydney area stations | Latest observations for Sydney area | Other Formats
Station Details ID: 066059 Name: TERREY HILLS AWS Lat: -33.69 Lon: 151.23 Height: 199.0 m
Data from the previous 72 hours. | See also: Recent months at Terrey Hills
Date/Time
EDT
Tmp

°C
App
Tmp
°C
Dew
Point
°C
Rel
Hum
%
Delta-T

°C
Wind Press
QNH
hPa
Press
MSL
hPa
Rain
since
9 am
mm
Dir
 
Spd
km/h
Gust
km/h
Spd
kts
Gust
kts
28/08:00pm 16.9 15.7 14.0 83 1.7 SSW 13 24 7 13 - - 8.0
28/07:30pm 17.3 17.5 15.8 91 0.9 S 9 15 5 8 - - 8.0
28/07:00pm 18.4 19.0 16.7 90 1.0 S 9 22 5 12 - - 8.0
28/06:30pm 17.9 18.2 16.9 94 0.6 S 11 22 6 12 - - 8.0
28/06:00pm 16.8 17.2 16.3 97 0.3 S 9 26 5 14 - - 8.0
28/05:30pm 17.5 17.8 16.9 96 0.4 SW 11 17 6 9 - - 7.8
28/05:00pm 17.9 19.7 17.4 97 0.3 S 4 9 2 5 - - 7.6
28/04:30pm 16.6 17.4 16.4 99 0.1 S 7 9 4 5 - - 7.6
28/04:00pm 16.6 17.0 16.4 99 0.1 S 9 20 5 11 - - 7.6
28/03:30pm 16.6 17.4 16.4 99 0.1 SW 7 13 4 7 - - 7.2
28/03:00pm 15.9 16.5 15.7 99 0.1 S 7 13 4 7 - - 7.0
28/02:30pm 17.4 18.5 17.1 98 0.2 SSE 7 13 4 7 - - 4.4
28/02:00pm 16.6 17.6 16.4 99 0.1 SSE 6 11 3 6 - - 4.4
28/01:30pm 15.8 16.3 15.5 98 0.2 SSE 7 15 4 8 - - 4.2
28/01:00pm 16.3 15.5 16.1 99 0.1 SE 15 30 8 16 - - 3.8
28/12:30pm 16.7 17.6 16.5 99 0.1 SE 7 13 4 7 - - 3.2
28/12:00pm 16.5 16.5 16.3 99 0.1 SSE 11 19 6 10 - - 3.0
28/11:30am 16.3 16.2 16.1 99 0.1 SSE 11 22 6 12 - - 2.0
28/11:00am 16.1 15.1 15.5 96 0.4 S 15 24 8 13 - - 1.4
28/10:30am 16.4 15.9 15.9 97 0.3 SSW 13 24 7 13 - - 1.2
28/10:00am 16.3 15.9 16.3 100 0.0 S 13 24 7 13 - - 1.0
28/09:30am 16.5 16.6 16.5 100 0.0 S 11 19 6 10 - - 0.4
28/09:00am 16.3 16.7 16.3 100 0.0 S 9 20 5 11 - - 92.8
28/08:30am 16.2 16.6 16.2 100 0.0 SSE 9 19 5 10 - - 88.0
28/08:00am 16.0 15.9 16.0 100 0.0 SW 11 17 6 9 - - 82.2
28/07:30am 16.1 16.0 16.1 100 0.0 WSW 11 22 6 12 - - 79.2
28/07:00am 16.2 15.8 16.2 100 0.0 WSW 13 20 7 11 - - 79.0
28/06:30am 16.4 17.2 16.4 100 0.0 SW 7 15 4 8 - - 78.6
28/05:30am 16.5 17.4 16.5 100 0.0 SSE 7 17 4 9 - - 76.6
28/05:00am 16.6 16.7 16.6 100 0.0 SSW 11 24 6 13 - - 76.6
28/04:30am 16.5 17.0 16.5 100 0.0 WSW 9 19 5 10 - - 76.6
28/04:00am 16.5 17.6 16.5 100 0.0 WSW 6 9 3 5 - - 76.4
28/03:30am 16.6 16.7 16.6 100 0.0 ESE 11 19 6 10 - - 76.4
28/03:00am 16.6 17.4 16.4 99 0.1 SSE 7 13 4 7 - - 74.6
28/02:30am 16.8 17.9 16.6 99 0.1 SSW 6 9 3 5 - - 74.4
28/02:00am 16.8 18.0 16.8 100 0.0 SSW 6 9 3 5 - - 73.4
28/01:30am 16.6 18.1 16.6 100 0.0 SSW 4 11 2 6 - - 72.8
28/01:00am 16.8 18.4 16.8 100 0.0 S 4 7 2 4 - - 72.8
28/12:30am 16.9 18.5 16.9 100 0.0 SSW 4 7 2 4 - - 72.0
 
Date/Time
EDT
Tmp

°C
App
Tmp
°C
Dew
Point
°C
Rel
Hum
%
Delta-T

°C
Wind Press
QNH
hPa
Press
MSL
hPa
Rain
since
9 am
mm
Dir
 
Spd
km/h
Gust
km/h
Spd
kts
Gust
kts
27/11:30pm 17.1 18.8 17.1 100 0.0 SE 4 7 2 4 - - 71.6
27/11:00pm 17.1 18.8 17.1 100 0.0 ESE 4 7 2 4 - - 70.6
27/10:30pm 17.1 18.2 17.1 100 0.0 ESE 7 13 4 7 - - 70.0
27/10:00pm 17.1 17.8 17.1 100 0.0 E 9 15 5 8 - - 68.8
27/09:30pm 17.1 17.1 17.1 100 0.0 ESE 13 19 7 10 - - 68.0
27/09:00pm 16.9 15.6 16.9 100 0.0 ESE 19 28 10 15 - - 66.2
27/08:30pm 17.3 17.7 17.3 100 0.0 SSE 11 30 6 16 - - 65.2
27/08:00pm 17.4 18.8 17.4 100 0.0 SSE 6 11 3 6 - - 65.2
27/07:30pm 17.6 19.1 17.6 100 0.0 SE 6 9 3 5 - - 65.0
27/07:00pm 17.8 19.7 17.6 99 0.1 SSE 4 7 2 4 - - 65.0
27/06:30pm 17.8 19.7 17.6 99 0.1 E 4 6 2 3 - - 65.0
27/06:00pm 17.5 19.2 17.2 98 0.2 SE 4 7 2 4 - - 65.0
27/05:30pm 17.1 16.4 16.5 96 0.4 ESE 15 24 8 13 - - 64.6
27/05:00pm 17.0 17.2 16.8 99 0.1 SE 11 22 6 12 - - 64.6
27/04:30pm 16.5 15.7 16.2 98 0.2 ESE 15 22 8 12 - - 64.6
27/04:00pm 17.1 16.2 16.8 98 0.2 ESE 17 24 9 13 - - 64.4
27/03:30pm 19.1 18.7 17.1 88 1.2 ESE 15 26 8 14 - - 64.2
27/03:00pm 19.0 19.0 17.3 90 1.0 ESE 13 22 7 12 - - 64.2
27/02:30pm 19.1 20.2 18.8 98 0.2 ESE 11 19 6 10 - - 64.2
27/02:00pm 18.9 19.6 18.9 100 0.0 E 13 20 7 11 - - 64.2
27/01:30pm 18.5 18.3 18.5 100 0.0 E 17 28 9 15 - - 64.2
27/01:00pm 17.5 16.5 17.5 100 0.0 ESE 19 26 10 14 - - 64.0
27/12:30pm 17.5 16.9 17.5 100 0.0 E 17 26 9 14 - - 62.2
27/12:00pm 17.4 18.2 17.4 100 0.0 NE 9 17 5 9 - - 59.2
27/11:30am 17.4 18.2 17.4 100 0.0 NE 9 19 5 10 - - 54.0
27/11:00am 17.2 17.6 17.2 100 0.0 ESE 11 22 6 12 - - 33.2
27/10:30am 17.6 18.2 17.6 100 0.0 ESE 11 20 6 11 - - 10.8
27/10:00am 17.7 18.3 17.7 100 0.0 ESE 11 20 6 11 - - 2.2
27/09:30am 17.8 17.7 17.8 100 0.0 ENE 15 32 8 17 - - 1.6
27/09:00am 17.9 17.8 17.9 100 0.0 E 15 24 8 13 - - 29.0
27/08:30am 18.2 18.2 18.2 100 0.0 E 15 24 8 13 - - 29.0
27/08:00am 18.2 19.4 18.2 100 0.0 E 9 17 5 9 - - 27.8
27/07:30am 18.3 19.5 18.3 100 0.0 E 9 13 5 7 - - 23.4
27/07:00am 18.3 19.9 18.3 100 0.0 SE 7 11 4 6 - - 18.6
27/06:30am 18.2 20.7 18.2 100 0.0 SE 2 7 1 4 - - 18.0
27/06:00am 18.3 21.2 18.3 100 0.0 CALM 0 4 0 2 - - 13.8
27/05:30am 18.1 20.2 18.1 100 0.0 S 4 7 2 4 - - 12.8
27/05:00am 18.0 19.7 18.0 100 0.0 S 6 11 3 6 - - 12.4
27/04:30am 18.2 20.0 18.2 100 0.0 SSE 6 9 3 5 - - 12.4
27/04:00am 18.2 20.0 18.2 100 0.0 SSE 6 9 3 5 - - 12.4
27/03:30am 18.2 19.8 18.2 100 0.0 ESE 7 15 4 8 - - 12.2
27/03:00am 18.3 19.9 18.3 100 0.0 ESE 7 13 4 7 - - 11.8
27/02:30am 18.3 19.5 18.3 100 0.0 ESE 9 17 5 9 - - 11.8
27/02:00am 18.4 21.0 18.4 100 0.0 S 2 4 1 2 - - 11.4
27/01:30am 18.4 21.4 18.4 100 0.0 CALM 0 0 0 0 - - 9.2
27/01:00am 18.4 20.6 18.4 100 0.0 SE 4 7 2 4 - - 9.2
27/12:30am 18.3 20.9 18.3 100 0.0 NW 2 4 1 2 - - 9.2
27/12:00am 18.3 20.9 18.3 100 0.0 SSE 2 6 1 3 - - 9.0
 
Date/Time
EDT
Tmp

°C
App
Tmp
°C
Dew
Point
°C
Rel
Hum
%
Delta-T

°C
Wind Press
QNH
hPa
Press
MSL
hPa
Rain
since
9 am
mm
Dir
 
Spd
km/h
Gust
km/h
Spd
kts
Gust
kts
26/11:30pm 18.0 20.4 18.0 100 0.0 SW 2 7 1 4 - - 8.2
26/11:00pm 17.9 19.9 17.9 100 0.0 SSE 4 6 2 3 - - 8.2
26/10:30pm 17.8 19.4 17.8 100 0.0 SSE 6 13 3 7 - - 7.8
26/10:00pm 17.8 19.4 17.8 100 0.0 S 6 9 3 5 - - 7.6
26/09:30pm 17.7 19.2 17.7 100 0.0 S 6 9 3 5 - - 7.6
26/09:00pm 17.7 19.2 17.7 100 0.0 SSE 6 11 3 6 - - 7.6
26/08:30pm 17.7 19.1 17.7 100 0.0 SSE 7 13 4 7 - - 7.6
26/08:00pm 17.6 18.9 17.6 100 0.0 SSE 7 15 4 8 - - 7.6
26/07:30pm 17.7 19.1 17.7 100 0.0 SSE 7 15 4 8 - - 7.2
26/07:00pm 17.9 19.3 17.9 100 0.0 ESE 7 13 4 7 - - 7.2
26/06:30pm 17.7 18.7 17.7 100 0.0 SE 9 19 5 10 - - 6.6
26/06:00pm 17.5 18.4 17.5 100 0.0 S 9 17 5 9 - - 5.0
26/05:30pm 17.5 18.0 17.5 100 0.0 SSE 11 20 6 11 - - 4.6
26/05:00pm 17.7 18.7 17.7 100 0.0 SSE 9 15 5 8 - - 4.0
26/04:30pm 17.7 18.6 17.5 99 0.1 S 9 17 5 9 - - 2.8
26/04:00pm 17.7 18.6 17.5 99 0.1 S 9 15 5 8 - - 2.6
26/03:30pm 17.9 18.9 17.7 99 0.1 SE 9 19 5 10 - - 2.4
26/03:00pm 17.8 18.7 17.6 99 0.1 SSE 9 20 5 11 - - 2.0
26/02:30pm 18.0 19.0 17.8 99 0.1 SSE 9 17 5 9 - - 1.6
26/02:00pm 17.8 19.1 17.5 98 0.2 SSE 7 17 4 9 - - 1.4
26/01:30pm 18.3 18.9 17.8 97 0.3 S 11 19 6 10 - - 0.4
26/01:00pm 18.6 19.7 18.1 97 0.3 SSE 9 17 5 9 - - 0.4
26/12:30pm 18.3 18.9 17.8 97 0.3 S 11 20 6 11 - - 0.4
26/12:00pm 18.5 19.9 17.9 96 0.4 SSW 7 15 4 8 - - 0.0
26/11:30am 18.5 19.5 17.7 95 0.5 SSW 9 17 5 9 - - 0.0
26/11:00am 18.6 20.2 17.8 95 0.5 SSW 6 9 3 5 - - 0.0
26/10:30am 18.7 19.7 17.7 94 0.6 S 9 15 5 8 - - 0.0
26/10:00am 18.7 19.3 17.7 94 0.6 SSW 11 19 6 10 - - 0.0
26/09:30am 19.1 20.5 17.8 92 0.8 S 7 17 4 9 - - 0.0
26/09:00am 18.5 19.1 17.7 95 0.5 S 11 22 6 12 - - 0.4
26/08:30am 18.5 19.0 17.5 94 0.6 S 11 26 6 14 - - 0.2
26/08:00am 19.3 20.2 17.6 90 1.0 S 9 20 5 11 - - 0.2
26/07:30am 19.2 20.5 17.5 90 1.0 SSW 7 13 4 7 - - 0.2
26/07:00am 19.1 19.9 17.4 90 1.0 SSW 9 15 5 8 - - 0.2
26/06:30am 19.0 20.5 17.7 92 0.8 SSW 6 11 3 6 - - 0.2
26/06:00am 19.1 20.0 17.6 91 0.9 S 9 17 5 9 - - 0.2
26/05:30am 18.7 19.3 17.7 94 0.6 S 11 19 6 10 - - 0.2
26/05:00am 18.6 18.9 17.8 95 0.5 SSW 13 20 7 11 - - 0.2
26/04:30am 19.0 19.6 17.8 93 0.7 SSW 11 19 6 10 - - 0.2
26/04:00am 19.3 20.1 18.1 93 0.7 SW 11 17 6 9 - - 0.2
26/03:30am 19.5 21.1 18.3 93 0.7 SW 7 15 4 8 - - 0.2
26/03:00am 19.9 21.0 18.0 89 1.2 S 9 20 5 11 - - 0.2
26/02:30am 20.3 21.8 18.1 87 1.4 SSW 7 15 4 8 - - 0.2
26/02:00am 20.6 21.7 18.0 85 1.6 S 9 17 5 9 - - 0.2
26/01:30am 20.8 22.0 18.2 85 1.6 SSE 9 20 5 11 - - 0.2
26/01:00am 20.8 22.1 18.4 86 1.5 S 9 20 5 11 - - 0.2
26/12:30am 20.9 22.4 18.8 88 1.3 SSE 9 17 5 9 - - 0.2
26/12:00am 20.9 21.3 19.0 89 1.2 S 15 24 8 13 - - 0.2
 
Date/Time
EDT
Tmp

°C
App
Tmp
°C
Dew
Point
°C
Rel
Hum
%
Delta-T

°C
Wind Press
QNH
hPa
Press
MSL
hPa
Rain
since
9 am
mm
Dir
 
Spd
km/h
Gust
km/h
Spd
kts
Gust
kts
25/11:30pm 20.9 20.9 19.0 89 1.2 S 17 30 9 16 - - 0.2
25/11:00pm 21.0 20.7 19.1 89 1.2 S 19 33 10 18 - - 0.2
25/10:30pm 21.2 20.8 19.3 89 1.2 S 20 35 11 19 - - 0.2
25/10:00pm 21.3 21.4 19.2 88 1.3 S 17 30 9 16 - - 0.2
25/09:30pm 21.6 21.3 19.5 88 1.3 S 20 39 11 21 - - 0.2
25/09:00pm 21.9 22.8 20.0 89 1.2 S 15 33 8 18 - - 0.2
25/08:30pm 22.2 22.5 19.7 86 1.6 S 17 35 9 19 - - 0.2

Latest Capital City Observations: Canberra | Sydney | Melbourne | Brisbane | Adelaide | Perth | Hobart | Darwin

Other Formats:

Comma delimited format used in spreadsheet applications
http://www.bom.gov.au/fwo/IDN60901/IDN60901.94759.axf

JavaScript Object Notation format (JSON) in row-major order
http://www.bom.gov.au/fwo/IDN60901/IDN60901.94759.json